createdAt,value
2022-08-20T00:00:18.466Z,18.50
2022-08-20T00:01:18.445Z,18.52
2022-08-20T00:02:18.433Z,18.58
2022-08-20T00:03:18.426Z,18.49
2022-08-20T00:04:18.435Z,18.53
2022-08-20T00:05:18.413Z,18.52
2022-08-20T00:06:18.401Z,18.49
2022-08-20T00:07:18.399Z,18.47
2022-08-20T00:08:18.385Z,18.41
2022-08-20T00:09:18.386Z,18.45
2022-08-20T00:10:18.388Z,18.44
2022-08-20T00:11:18.363Z,18.49
2022-08-20T00:12:18.359Z,18.47
2022-08-20T00:13:18.347Z,18.52
2022-08-20T00:14:18.346Z,18.53
2022-08-20T00:15:18.334Z,18.53
2022-08-20T00:16:18.326Z,18.55
2022-08-20T00:17:18.317Z,18.62
2022-08-20T00:18:18.309Z,18.56
2022-08-20T00:19:18.314Z,18.56
2022-08-20T00:20:18.297Z,18.58
2022-08-20T00:21:19.192Z,18.62
2022-08-20T00:22:18.277Z,18.58
2022-08-20T00:23:18.273Z,18.55
2022-08-20T00:24:18.277Z,18.55
2022-08-20T00:25:18.262Z,18.58
2022-08-20T00:26:18.259Z,18.49
2022-08-20T00:27:18.246Z,18.50
2022-08-20T00:28:18.228Z,18.50
2022-08-20T00:29:18.227Z,18.38
2022-08-20T00:30:18.217Z,18.40
2022-08-20T00:32:18.179Z,18.35
2022-08-20T00:33:18.202Z,18.35
2022-08-20T00:34:19.268Z,18.26
2022-08-20T00:35:19.252Z,18.34
2022-08-20T00:36:19.254Z,18.33
2022-08-20T00:37:19.240Z,18.34
2022-08-20T00:38:19.227Z,18.33
2022-08-20T00:39:19.218Z,18.34
2022-08-20T00:40:22.690Z,18.11
2022-08-20T00:41:19.208Z,18.16
2022-08-20T00:42:19.210Z,18.18
2022-08-20T00:43:19.183Z,18.13
2022-08-20T00:44:19.172Z,18.05
2022-08-20T00:45:19.175Z,18.07
2022-08-20T00:46:19.160Z,18.05
2022-08-20T00:47:19.173Z,18.01
2022-08-20T00:48:19.144Z,17.94
2022-08-20T00:49:19.147Z,18.07
2022-08-20T00:50:19.137Z,17.85
2022-08-20T00:51:19.143Z,17.94
2022-08-20T00:52:19.631Z,17.87
2022-08-20T00:53:19.107Z,17.83
2022-08-20T00:54:19.098Z,17.80
2022-08-20T00:55:19.092Z,17.86
2022-08-20T00:56:19.081Z,17.79
2022-08-20T00:57:19.086Z,17.74
2022-08-20T00:58:19.073Z,17.74
2022-08-20T00:59:19.061Z,17.80
2022-08-20T01:00:19.054Z,17.74
2022-08-20T01:01:19.065Z,17.70
2022-08-20T01:02:19.046Z,17.80
2022-08-20T01:03:19.028Z,17.80
2022-08-20T01:04:19.032Z,17.70
2022-08-20T01:05:19.146Z,17.80
2022-08-20T01:06:18.991Z,17.68
2022-08-20T01:07:20.001Z,17.68
2022-08-20T01:08:18.985Z,17.76
2022-08-20T01:09:49.533Z,17.78
2022-08-20T01:10:19.972Z,17.71
2022-08-20T01:11:18.965Z,17.63
2022-08-20T01:12:18.956Z,17.70
2022-08-20T01:13:19.553Z,17.60
2022-08-20T01:14:18.939Z,17.65
2022-08-20T01:15:18.935Z,17.60
2022-08-20T01:16:18.936Z,17.63
2022-08-20T01:17:18.924Z,17.57
2022-08-20T01:18:19.129Z,17.64
2022-08-20T01:19:29.349Z,17.59
2022-08-20T01:20:19.913Z,17.46
2022-08-20T01:21:18.910Z,17.51
2022-08-20T01:22:18.903Z,17.56
2022-08-20T01:23:18.873Z,17.49
2022-08-20T01:24:18.857Z,17.49
2022-08-20T01:25:18.859Z,17.39
2022-08-20T01:26:18.855Z,17.36
2022-08-20T01:27:18.835Z,17.36
2022-08-20T01:28:18.824Z,17.31
2022-08-20T01:29:18.836Z,17.39
2022-08-20T01:30:18.812Z,17.38
2022-08-20T01:31:19.992Z,17.36
2022-08-20T01:32:18.803Z,17.36
2022-08-20T01:33:18.790Z,17.38
2022-08-20T01:34:18.791Z,17.34
2022-08-20T01:35:18.784Z,17.33
2022-08-20T01:36:18.778Z,17.30
2022-08-20T01:37:18.769Z,17.27
2022-08-20T01:38:18.751Z,17.30
2022-08-20T01:39:18.751Z,17.29
2022-08-20T01:40:18.733Z,17.24
2022-08-20T01:41:18.725Z,17.24
2022-08-20T01:42:19.714Z,17.26
2022-08-20T01:43:18.723Z,17.19
2022-08-20T01:44:18.738Z,17.16
2022-08-20T01:45:18.739Z,17.16
2022-08-20T01:46:18.689Z,17.14
2022-08-20T01:47:18.688Z,17.14
2022-08-20T01:48:18.820Z,17.05
2022-08-20T01:49:23.096Z,17.09
2022-08-20T01:50:18.657Z,17.12
2022-08-20T01:51:18.650Z,17.12
2022-08-20T01:52:18.643Z,17.08
2022-08-20T01:53:18.633Z,17.04
2022-08-20T01:54:18.638Z,17.08
2022-08-20T01:55:18.616Z,17.05
2022-08-20T01:56:18.614Z,17.09
2022-08-20T01:57:18.599Z,17.06
2022-08-20T01:58:18.610Z,17.08
2022-08-20T01:59:18.600Z,17.05
2022-08-20T02:00:20.006Z,17.05
2022-08-20T02:01:18.629Z,17.08
2022-08-20T02:02:18.565Z,17.05
2022-08-20T02:03:18.553Z,17.11
2022-08-20T02:04:18.545Z,17.15
2022-08-20T02:05:18.536Z,17.01
2022-08-20T02:06:18.526Z,17.14
2022-08-20T02:07:18.528Z,17.15
2022-08-20T02:08:18.529Z,17.06
2022-08-20T02:09:18.509Z,17.14
2022-08-20T02:10:18.497Z,17.09
2022-08-20T02:11:18.509Z,17.11
2022-08-20T02:12:18.498Z,17.14
2022-08-20T02:13:18.474Z,17.04
2022-08-20T02:14:18.469Z,17.12
2022-08-20T02:15:18.473Z,17.06
2022-08-20T02:16:19.457Z,16.94
2022-08-20T02:17:18.458Z,16.94
2022-08-20T02:18:18.443Z,16.94
2022-08-20T02:19:18.476Z,16.96
2022-08-20T02:20:18.427Z,16.94
2022-08-20T02:21:18.434Z,16.94
2022-08-20T02:22:18.420Z,16.90
2022-08-20T02:23:18.393Z,16.97
2022-08-20T02:24:19.392Z,16.87
2022-08-20T02:25:18.396Z,16.93
2022-08-20T02:26:18.396Z,16.93
2022-08-20T02:27:18.372Z,16.79
2022-08-20T02:28:18.360Z,16.84
2022-08-20T02:29:18.350Z,16.89
2022-08-20T02:30:27.585Z,16.93
2022-08-20T02:31:19.341Z,16.93
2022-08-20T02:32:24.519Z,16.94
2022-08-20T02:33:19.325Z,16.84
2022-08-20T02:34:22.702Z,16.90
2022-08-20T02:35:18.304Z,16.91
2022-08-20T02:36:18.306Z,16.87
2022-08-20T02:37:18.293Z,16.83
2022-08-20T02:38:18.278Z,16.96
2022-08-20T02:39:18.269Z,16.81
2022-08-20T02:40:18.331Z,16.71
2022-08-20T02:41:19.267Z,16.74
2022-08-20T02:42:18.283Z,16.74
2022-08-20T02:43:18.251Z,16.74
2022-08-20T02:44:18.247Z,16.68
2022-08-20T02:45:19.181Z,16.74
2022-08-20T02:46:18.227Z,16.72
2022-08-20T02:47:18.209Z,16.83
2022-08-20T02:48:18.205Z,16.81
2022-08-20T02:49:18.192Z,16.81
2022-08-20T02:50:18.184Z,16.83
2022-08-20T02:51:18.166Z,16.89
2022-08-20T02:52:20.170Z,16.86
2022-08-20T02:53:18.158Z,16.84
2022-08-20T02:54:18.165Z,16.83
2022-08-20T02:55:27.135Z,16.83
2022-08-20T02:56:19.169Z,16.84
2022-08-20T02:57:18.139Z,16.79
2022-08-20T02:58:18.115Z,16.84
2022-08-20T02:59:19.138Z,16.84
2022-08-20T03:00:18.105Z,16.79
2022-08-20T03:01:18.144Z,16.90
2022-08-20T03:02:19.090Z,16.84
2022-08-20T03:03:18.076Z,16.84
2022-08-20T03:04:18.072Z,16.83
2022-08-20T03:05:18.068Z,16.89
2022-08-20T03:06:18.055Z,16.84
2022-08-20T03:07:18.060Z,16.78
2022-08-20T03:08:18.048Z,16.79
2022-08-20T03:09:18.042Z,16.79
2022-08-20T03:10:18.023Z,16.79
2022-08-20T03:11:18.020Z,16.74
2022-08-20T03:12:18.012Z,16.72
2022-08-20T03:13:18.012Z,16.83
2022-08-20T03:14:18.007Z,16.74
2022-08-20T03:15:18.054Z,16.75
2022-08-20T03:16:17.980Z,16.75
2022-08-20T03:17:17.971Z,16.72
2022-08-20T03:18:18.192Z,16.75
2022-08-20T03:19:17.951Z,16.72
2022-08-20T03:20:17.953Z,16.69
2022-08-20T03:21:18.948Z,16.64
2022-08-20T03:22:17.944Z,16.66
2022-08-20T03:23:17.940Z,16.72
2022-08-20T03:24:17.917Z,16.72
2022-08-20T03:25:17.909Z,16.69
2022-08-20T03:26:17.905Z,16.75
2022-08-20T03:27:17.889Z,16.74
2022-08-20T03:28:17.881Z,16.72
2022-08-20T03:29:17.884Z,16.90
2022-08-20T03:30:17.869Z,16.84
2022-08-20T03:31:17.857Z,16.84
2022-08-20T03:32:17.855Z,16.83
2022-08-20T03:33:17.845Z,16.68
2022-08-20T03:34:17.842Z,16.86
2022-08-20T03:35:17.827Z,16.86
2022-08-20T03:36:20.033Z,16.83
2022-08-20T03:37:18.818Z,16.89
2022-08-20T03:38:17.809Z,16.97
2022-08-20T03:39:17.800Z,16.90
2022-08-20T03:40:17.847Z,17.01
2022-08-20T03:41:17.781Z,16.93
2022-08-20T03:42:17.776Z,17.01
2022-08-20T03:43:17.770Z,16.93
2022-08-20T03:44:17.760Z,16.96
2022-08-20T03:45:20.470Z,16.94
2022-08-20T03:46:23.123Z,16.99
2022-08-20T03:47:18.733Z,17.04
2022-08-20T03:48:17.742Z,16.90
2022-08-20T03:49:17.716Z,17.11
2022-08-20T03:50:23.661Z,17.05
2022-08-20T03:51:18.702Z,17.02
2022-08-20T03:52:17.691Z,16.99
2022-08-20T03:53:17.682Z,16.94
2022-08-20T03:54:17.682Z,16.99
2022-08-20T03:55:17.673Z,16.93
2022-08-20T03:56:17.655Z,16.91
2022-08-20T03:57:17.649Z,16.96
2022-08-20T03:58:17.643Z,16.90
2022-08-20T03:59:17.634Z,16.99
2022-08-20T04:00:17.629Z,16.99
2022-08-20T04:01:44.354Z,16.90
2022-08-20T04:02:18.614Z,16.96
2022-08-20T04:03:17.606Z,17.01
2022-08-20T04:04:17.608Z,17.02
2022-08-20T04:05:17.595Z,16.93
2022-08-20T04:06:17.600Z,17.01
2022-08-20T04:07:17.573Z,17.06
2022-08-20T04:08:17.572Z,16.94
2022-08-20T04:09:17.568Z,16.96
2022-08-20T04:10:17.558Z,16.99
2022-08-20T04:11:17.551Z,16.91
2022-08-20T04:12:17.531Z,16.91
2022-08-20T04:13:17.524Z,17.02
2022-08-20T04:14:19.461Z,17.01
2022-08-20T04:15:17.516Z,17.08
2022-08-20T04:16:17.518Z,17.06
2022-08-20T04:17:17.504Z,17.15
2022-08-20T04:18:17.485Z,17.16
2022-08-20T04:19:17.473Z,17.14
2022-08-20T04:20:17.471Z,17.11
2022-08-20T04:21:17.468Z,17.11
2022-08-20T04:22:17.450Z,17.06
2022-08-20T04:23:17.444Z,17.05
2022-08-20T04:24:21.956Z,17.08
2022-08-20T04:25:18.427Z,17.05
2022-08-20T04:26:18.431Z,17.08
2022-08-20T04:27:17.413Z,17.12
2022-08-20T04:28:17.407Z,17.09
2022-08-20T04:29:17.408Z,17.16
2022-08-20T04:30:17.389Z,17.16
2022-08-20T04:31:18.162Z,17.14
2022-08-20T04:32:17.974Z,17.22
2022-08-20T04:33:19.155Z,17.20
2022-08-20T04:34:18.361Z,17.15
2022-08-20T04:35:17.365Z,17.14
2022-08-20T04:36:17.346Z,17.12
2022-08-20T04:37:17.559Z,17.20
2022-08-20T04:38:17.336Z,17.23
2022-08-20T04:39:17.320Z,17.16
2022-08-20T04:40:17.328Z,17.14
2022-08-20T04:41:22.919Z,17.22
2022-08-20T04:42:18.309Z,17.20
2022-08-20T04:43:17.300Z,17.24
2022-08-20T04:44:17.284Z,17.27
2022-08-20T04:45:17.283Z,17.38
2022-08-20T04:46:17.279Z,17.31
2022-08-20T04:47:17.278Z,17.38
2022-08-20T04:48:18.257Z,17.42
2022-08-20T04:49:17.245Z,17.41
2022-08-20T04:50:17.237Z,17.46
2022-08-20T04:51:17.260Z,17.46
2022-08-20T04:52:17.218Z,17.42
2022-08-20T04:53:17.213Z,17.48
2022-08-20T04:54:17.202Z,17.48
2022-08-20T04:55:17.196Z,17.46
2022-08-20T04:56:17.186Z,17.57
2022-08-20T04:57:17.184Z,17.70
2022-08-20T04:58:17.175Z,17.74
2022-08-20T04:59:17.174Z,17.72
2022-08-20T05:00:17.153Z,17.74
2022-08-20T05:01:17.176Z,17.70
2022-08-20T05:02:17.142Z,17.70
2022-08-20T05:03:17.134Z,17.76
2022-08-20T05:04:17.129Z,17.76
2022-08-20T05:05:17.114Z,17.74
2022-08-20T05:06:17.119Z,17.74
2022-08-20T05:07:17.100Z,17.82
2022-08-20T05:08:20.129Z,17.68
2022-08-20T05:09:17.099Z,17.64
2022-08-20T05:10:17.079Z,17.65
2022-08-20T05:11:32.553Z,17.57
2022-08-20T05:12:18.057Z,17.57
2022-08-20T05:13:17.051Z,17.67
2022-08-20T05:14:17.051Z,17.63
2022-08-20T05:15:17.035Z,17.63
2022-08-20T05:16:17.027Z,17.60
2022-08-20T05:17:17.021Z,17.60
2022-08-20T05:18:17.205Z,17.72
2022-08-20T05:19:17.011Z,17.76
2022-08-20T05:20:16.994Z,17.74
2022-08-20T05:21:16.994Z,17.64
2022-08-20T05:22:16.983Z,17.68
2022-08-20T05:23:16.974Z,17.71
2022-08-20T05:24:16.975Z,17.74
2022-08-20T05:25:17.711Z,17.82
2022-08-20T05:26:16.950Z,17.80
2022-08-20T05:27:24.762Z,17.85
2022-08-20T05:28:17.931Z,17.83
2022-08-20T05:29:16.932Z,17.90
2022-08-20T05:30:16.925Z,17.89
2022-08-20T05:31:16.915Z,18.04
2022-08-20T05:32:16.910Z,17.86
2022-08-20T05:33:16.965Z,17.89
2022-08-20T05:34:16.895Z,17.86
2022-08-20T05:35:16.884Z,17.82
2022-08-20T05:36:16.866Z,17.83
2022-08-20T05:37:16.862Z,17.94
2022-08-20T05:38:16.849Z,18.05
2022-08-20T05:39:16.840Z,18.04
2022-08-20T05:40:16.881Z,18.10
2022-08-20T05:41:28.951Z,18.05
2022-08-20T05:42:17.826Z,18.20
2022-08-20T05:43:16.807Z,18.20
2022-08-20T05:44:16.800Z,18.25
2022-08-20T05:45:16.793Z,18.23
2022-08-20T05:46:16.793Z,18.37
2022-08-20T05:47:16.778Z,18.45
2022-08-20T05:48:16.767Z,18.34
2022-08-20T05:49:16.764Z,18.50
2022-08-20T05:50:19.870Z,18.55
2022-08-20T05:51:17.750Z,18.58
2022-08-20T05:52:16.739Z,18.56
2022-08-20T05:53:16.728Z,18.62
2022-08-20T05:54:16.720Z,18.49
2022-08-20T05:55:16.713Z,18.55
2022-08-20T05:56:16.705Z,18.60
2022-08-20T05:57:16.711Z,18.52
2022-08-20T05:58:16.706Z,18.55
2022-08-20T05:59:19.041Z,18.50
2022-08-20T06:00:17.669Z,18.53
2022-08-20T06:01:16.699Z,18.60
2022-08-20T06:02:16.658Z,18.59
2022-08-20T06:03:16.650Z,18.62
2022-08-20T06:04:16.649Z,18.65
2022-08-20T06:05:16.652Z,18.59
2022-08-20T06:06:18.238Z,18.59
2022-08-20T06:07:17.631Z,18.70
2022-08-20T06:08:16.621Z,18.65
2022-08-20T06:09:16.605Z,18.83
2022-08-20T06:10:17.647Z,18.73
2022-08-20T06:11:16.589Z,18.78
2022-08-20T06:12:16.603Z,18.75
2022-08-20T06:13:16.578Z,18.80
2022-08-20T06:14:16.572Z,18.92
2022-08-20T06:15:17.563Z,18.92
2022-08-20T06:16:16.552Z,18.93
2022-08-20T06:17:16.541Z,18.98
2022-08-20T06:18:28.341Z,19.02
2022-08-20T06:19:17.529Z,19.12
2022-08-20T06:20:17.528Z,19.16
2022-08-20T06:21:16.517Z,19.22
2022-08-20T06:22:18.769Z,19.26
2022-08-20T06:23:17.496Z,19.22
2022-08-20T06:24:16.527Z,19.24
2022-08-20T06:25:16.486Z,19.29
2022-08-20T06:26:16.465Z,19.30
2022-08-20T06:27:17.464Z,19.21
2022-08-20T06:28:16.468Z,19.15
2022-08-20T06:29:16.458Z,19.31
2022-08-20T06:30:16.433Z,19.24
2022-08-20T06:31:16.433Z,19.24
2022-08-20T06:32:16.457Z,19.26
2022-08-20T06:33:16.413Z,19.30
2022-08-20T06:34:16.406Z,19.24
2022-08-20T06:35:19.888Z,19.22
2022-08-20T06:36:18.660Z,19.29
2022-08-20T06:37:16.377Z,19.30
2022-08-20T06:38:16.379Z,19.33
2022-08-20T06:39:16.367Z,19.33
2022-08-20T06:40:16.429Z,19.22
2022-08-20T06:41:16.351Z,19.27
2022-08-20T06:42:20.739Z,19.24
2022-08-20T06:43:16.336Z,19.29
2022-08-20T06:44:16.324Z,19.40
2022-08-20T06:45:16.325Z,19.54
2022-08-20T06:46:16.312Z,19.62
2022-08-20T06:47:16.331Z,19.49
2022-08-20T06:48:16.298Z,19.56
2022-08-20T06:49:16.303Z,19.67
2022-08-20T06:50:16.280Z,19.79
2022-08-20T06:51:16.270Z,19.81
2022-08-20T06:52:16.271Z,19.79
2022-08-20T06:53:16.260Z,19.95
2022-08-20T06:54:16.295Z,19.89
2022-08-20T06:55:16.243Z,20.02
2022-08-20T06:56:16.235Z,20.00
2022-08-20T06:57:16.296Z,19.91
2022-08-20T06:58:30.527Z,19.77
2022-08-20T06:59:17.217Z,19.76
2022-08-20T07:00:16.205Z,19.85
2022-08-20T07:01:16.236Z,19.88
2022-08-20T07:02:16.212Z,19.96
2022-08-20T07:03:16.184Z,19.86
2022-08-20T07:04:16.172Z,19.85
2022-08-20T07:05:16.165Z,19.76
2022-08-20T07:06:16.161Z,19.82
2022-08-20T07:07:16.162Z,19.74
2022-08-20T07:08:16.141Z,19.82
2022-08-20T07:09:16.138Z,19.81
2022-08-20T07:10:16.129Z,19.79
2022-08-20T07:11:16.125Z,19.74
2022-08-20T07:12:16.105Z,19.69
2022-08-20T07:13:16.113Z,19.64
2022-08-20T07:14:16.091Z,19.69
2022-08-20T07:15:16.093Z,19.71
2022-08-20T07:16:16.075Z,19.64
2022-08-20T07:17:16.071Z,19.58
2022-08-20T07:18:16.324Z,19.62
2022-08-20T07:19:17.050Z,19.49
2022-08-20T07:20:16.049Z,19.37
2022-08-20T07:21:16.044Z,19.40
2022-08-20T07:22:16.029Z,19.51
2022-08-20T07:23:16.016Z,19.52
2022-08-20T07:24:16.017Z,19.56
2022-08-20T07:25:16.012Z,19.54
2022-08-20T07:26:15.993Z,19.58
2022-08-20T07:27:15.993Z,19.67
2022-08-20T07:28:15.985Z,19.49
2022-08-20T07:29:15.970Z,19.67
2022-08-20T07:30:16.954Z,19.71
2022-08-20T07:31:16.177Z,19.69
2022-08-20T07:32:15.942Z,19.59
2022-08-20T07:33:16.931Z,19.67
2022-08-20T07:34:15.935Z,19.63
2022-08-20T07:35:15.918Z,19.58
2022-08-20T07:36:15.911Z,19.62
2022-08-20T07:37:15.906Z,19.63
2022-08-20T07:38:15.891Z,19.66
2022-08-20T07:39:15.894Z,19.62
2022-08-20T07:40:15.946Z,19.66
2022-08-20T07:41:15.874Z,19.62
2022-08-20T07:42:15.874Z,19.59
2022-08-20T07:43:15.848Z,19.64
2022-08-20T07:44:16.705Z,19.51
2022-08-20T07:45:15.854Z,19.56
2022-08-20T07:46:15.832Z,19.47
2022-08-20T07:47:15.845Z,19.63
2022-08-20T07:48:31.121Z,19.52
2022-08-20T07:49:16.809Z,19.39
2022-08-20T07:50:15.794Z,19.22
2022-08-20T07:51:15.796Z,19.16
2022-08-20T07:52:15.791Z,19.09
2022-08-20T07:53:15.773Z,19.15
2022-08-20T07:54:15.773Z,19.00
2022-08-20T07:55:15.759Z,19.00
2022-08-20T07:56:15.753Z,19.02
2022-08-20T07:57:15.743Z,19.02
2022-08-20T07:58:15.737Z,19.04
2022-08-20T07:59:15.749Z,18.92
2022-08-20T08:00:15.715Z,18.95
2022-08-20T08:01:15.811Z,18.99
2022-08-20T08:02:15.706Z,18.96
2022-08-20T08:03:15.700Z,18.93
2022-08-20T08:04:15.691Z,18.99
2022-08-20T08:05:15.674Z,18.95
2022-08-20T08:06:18.276Z,18.92
2022-08-20T08:07:16.669Z,19.02
2022-08-20T08:08:15.658Z,18.99
2022-08-20T08:09:15.672Z,18.96
2022-08-20T08:10:15.642Z,19.04
2022-08-20T08:11:15.634Z,19.04
2022-08-20T08:12:15.632Z,19.04
2022-08-20T08:13:15.621Z,19.04
2022-08-20T08:14:15.625Z,19.02
2022-08-20T08:15:15.601Z,19.07
2022-08-20T08:16:15.590Z,19.00
2022-08-20T08:17:15.581Z,18.92
2022-08-20T08:18:15.570Z,19.00
2022-08-20T08:19:15.581Z,19.00
2022-08-20T08:20:15.560Z,19.11
2022-08-20T08:21:15.548Z,19.09
2022-08-20T08:22:15.542Z,19.15
2022-08-20T08:23:24.823Z,19.24
2022-08-20T08:24:21.015Z,19.29
2022-08-20T08:25:17.523Z,19.27
2022-08-20T08:26:15.885Z,19.27
2022-08-20T08:27:16.300Z,19.27
2022-08-20T08:28:15.499Z,19.26
2022-08-20T08:29:15.507Z,19.31
2022-08-20T08:30:15.484Z,19.36
2022-08-20T08:31:15.489Z,19.39
2022-08-20T08:32:15.473Z,19.45
2022-08-20T08:33:15.472Z,19.52
2022-08-20T08:34:15.455Z,19.55
2022-08-20T08:35:15.447Z,19.76
2022-08-20T08:36:15.448Z,19.82
2022-08-20T08:37:15.424Z,19.82
2022-08-20T08:38:15.429Z,19.88
2022-08-20T08:39:15.418Z,19.86
2022-08-20T08:40:15.465Z,19.89
2022-08-20T08:41:15.412Z,19.86
2022-08-20T08:42:15.389Z,19.92
2022-08-20T08:43:17.357Z,20.10
2022-08-20T08:44:16.367Z,20.16
2022-08-20T08:45:15.379Z,20.34
2022-08-20T08:46:15.364Z,20.43
2022-08-20T08:47:15.351Z,20.62
2022-08-20T08:48:18.551Z,20.74
2022-08-20T08:49:16.334Z,20.84
2022-08-20T08:50:15.331Z,20.78
2022-08-20T08:51:15.318Z,20.96
2022-08-20T08:52:15.308Z,21.02
2022-08-20T08:53:15.307Z,21.18
2022-08-20T08:54:15.299Z,21.27
2022-08-20T08:55:15.280Z,21.42
2022-08-20T08:56:15.316Z,21.48
2022-08-20T08:57:15.276Z,21.46
2022-08-20T08:58:17.054Z,21.62
2022-08-20T08:59:15.276Z,21.55
2022-08-20T09:00:15.275Z,21.60
2022-08-20T09:01:53.237Z,21.54
2022-08-20T09:02:16.278Z,21.67
2022-08-20T09:03:15.225Z,21.76
2022-08-20T09:04:15.229Z,21.82
2022-08-20T09:05:15.211Z,21.95
2022-08-20T09:06:15.195Z,21.95
2022-08-20T09:07:15.203Z,22.10
2022-08-20T09:08:17.227Z,22.17
2022-08-20T09:09:16.186Z,22.15
2022-08-20T09:10:15.168Z,22.17
2022-08-20T09:11:15.156Z,22.23
2022-08-20T09:12:15.158Z,22.39
2022-08-20T09:13:15.142Z,22.48
2022-08-20T09:14:15.145Z,22.68
2022-08-20T09:15:15.130Z,22.98
2022-08-20T09:16:15.123Z,22.98
2022-08-20T09:17:15.110Z,22.98
2022-08-20T09:18:15.100Z,22.90
2022-08-20T09:19:15.100Z,22.93
2022-08-20T09:20:15.114Z,22.84
2022-08-20T09:21:15.093Z,22.75
2022-08-20T09:22:15.073Z,22.84
2022-08-20T09:23:15.066Z,22.96
2022-08-20T09:24:15.067Z,23.03
2022-08-20T09:25:15.044Z,23.09
2022-08-20T09:26:15.032Z,23.24
2022-08-20T09:27:15.029Z,23.20
2022-08-20T09:28:15.018Z,23.21
2022-08-20T09:29:15.082Z,23.12
2022-08-20T09:30:15.004Z,23.31
2022-08-20T09:31:15.010Z,23.40
2022-08-20T09:32:15.003Z,23.59
2022-08-20T09:33:14.983Z,23.73
2022-08-20T09:34:14.989Z,23.81
2022-08-20T09:35:14.970Z,23.99
2022-08-20T09:36:31.855Z,24.16
2022-08-20T09:37:15.957Z,24.33
2022-08-20T09:38:14.937Z,24.29
2022-08-20T09:39:14.942Z,24.38
2022-08-20T09:40:14.981Z,24.40
2022-08-20T09:41:15.926Z,24.39
2022-08-20T09:42:14.921Z,24.28
2022-08-20T09:43:14.911Z,24.33
2022-08-20T09:44:14.893Z,24.58
2022-08-20T09:45:14.928Z,24.74
2022-08-20T09:46:14.880Z,24.74
2022-08-20T09:47:14.875Z,24.53
2022-08-20T09:48:14.862Z,24.60
2022-08-20T09:49:14.855Z,24.66
2022-08-20T09:50:15.383Z,24.89
2022-08-20T09:51:14.838Z,24.96
2022-08-20T09:52:14.837Z,24.92
2022-08-20T09:53:14.825Z,24.85
2022-08-20T09:54:14.817Z,25.07
2022-08-20T09:55:14.821Z,25.35
2022-08-20T09:56:14.808Z,25.43
2022-08-20T09:57:14.795Z,25.63
2022-08-20T09:58:14.781Z,25.81
2022-08-20T09:59:14.783Z,25.80
2022-08-20T10:00:14.835Z,25.44
2022-08-20T10:01:14.797Z,25.23
2022-08-20T10:02:14.754Z,24.98
2022-08-20T10:03:14.749Z,25.06
2022-08-20T10:04:14.754Z,25.16
2022-08-20T10:05:14.731Z,25.01
2022-08-20T10:06:14.757Z,25.18
2022-08-20T10:07:15.873Z,25.47
2022-08-20T10:08:14.702Z,25.46
2022-08-20T10:09:14.698Z,25.55
2022-08-20T10:10:14.715Z,25.60
2022-08-20T10:11:14.696Z,25.78
2022-08-20T10:12:14.676Z,25.65
2022-08-20T10:13:15.438Z,25.55
2022-08-20T10:14:14.661Z,25.84
2022-08-20T10:15:14.673Z,25.98
2022-08-20T10:16:14.644Z,26.25
2022-08-20T10:17:14.645Z,26.38
2022-08-20T10:18:14.629Z,26.47
2022-08-20T10:19:14.626Z,26.45
2022-08-20T10:20:14.703Z,26.48
2022-08-20T10:21:14.620Z,26.48
2022-08-20T10:22:14.610Z,26.62
2022-08-20T10:23:14.604Z,26.52
2022-08-20T10:24:15.341Z,26.63
2022-08-20T10:25:14.570Z,26.55
2022-08-20T10:26:14.581Z,26.53
2022-08-20T10:27:14.554Z,26.48
2022-08-20T10:28:14.553Z,26.65
2022-08-20T10:29:14.546Z,26.71
2022-08-20T10:30:14.533Z,26.92
2022-08-20T10:31:14.544Z,27.12
2022-08-20T10:32:14.523Z,27.15
2022-08-20T10:33:14.522Z,27.18
2022-08-20T10:34:15.336Z,27.30
2022-08-20T10:35:14.517Z,27.45
2022-08-20T10:36:14.532Z,27.52
2022-08-20T10:37:14.493Z,27.64
2022-08-20T10:38:14.474Z,27.42
2022-08-20T10:39:14.469Z,27.58
2022-08-20T10:40:15.429Z,27.60
2022-08-20T10:41:14.549Z,27.51
2022-08-20T10:42:14.449Z,27.39
2022-08-20T10:43:14.485Z,27.45
2022-08-20T10:44:14.434Z,27.22
2022-08-20T10:45:14.436Z,27.14
2022-08-20T10:46:14.415Z,27.30
2022-08-20T10:47:14.406Z,27.44
2022-08-20T10:48:17.206Z,27.64
2022-08-20T10:49:16.383Z,27.71
2022-08-20T10:50:14.436Z,27.70
2022-08-20T10:51:14.375Z,27.83
2022-08-20T10:52:14.368Z,27.82
2022-08-20T10:53:14.363Z,27.52
2022-08-20T10:54:14.356Z,27.58
2022-08-20T10:55:14.346Z,27.30
2022-08-20T10:56:15.835Z,26.89
2022-08-20T10:57:15.373Z,26.52
2022-08-20T10:58:14.332Z,26.40
2022-08-20T10:59:14.319Z,25.95
2022-08-20T11:00:14.309Z,25.58
2022-08-20T11:01:31.538Z,25.13
2022-08-20T11:02:15.340Z,25.16
2022-08-20T11:03:14.275Z,25.14
2022-08-20T11:04:14.266Z,24.89
2022-08-20T11:05:14.278Z,24.55
2022-08-20T11:06:14.259Z,24.38
2022-08-20T11:07:14.265Z,24.35
2022-08-20T11:08:14.251Z,24.40
2022-08-20T11:09:14.258Z,24.28
2022-08-20T11:10:14.263Z,24.23
2022-08-20T11:11:14.213Z,24.18
2022-08-20T11:12:14.210Z,24.06
2022-08-20T11:13:14.203Z,24.18
2022-08-20T11:14:14.198Z,24.17
2022-08-20T11:15:14.190Z,24.24
2022-08-20T11:16:14.176Z,24.17
2022-08-20T11:17:14.176Z,24.01
2022-08-20T11:18:14.178Z,24.06
2022-08-20T11:19:14.166Z,23.87
2022-08-20T11:20:14.154Z,23.83
2022-08-20T11:21:14.134Z,23.80
2022-08-20T11:22:14.132Z,23.78
2022-08-20T11:23:14.141Z,23.76
2022-08-20T11:24:14.123Z,23.73
2022-08-20T11:25:14.106Z,23.80
2022-08-20T11:26:14.099Z,23.86
2022-08-20T11:27:14.091Z,23.91
2022-08-20T11:28:14.090Z,24.05
2022-08-20T11:29:14.076Z,24.20
2022-08-20T11:30:14.084Z,24.32
2022-08-20T11:31:14.072Z,24.33
2022-08-20T11:32:14.058Z,24.47
2022-08-20T11:33:14.056Z,24.43
2022-08-20T11:34:14.039Z,24.55
2022-08-20T11:35:40.958Z,24.66
2022-08-20T11:36:16.020Z,24.68
2022-08-20T11:37:14.016Z,24.69
2022-08-20T11:38:14.029Z,24.86
2022-08-20T11:39:14.003Z,24.81
2022-08-20T11:40:14.052Z,24.91
2022-08-20T11:41:13.978Z,24.98
2022-08-20T11:42:13.967Z,25.03
2022-08-20T11:43:15.518Z,25.06
2022-08-20T11:44:21.055Z,25.13
2022-08-20T11:45:15.952Z,25.26
2022-08-20T11:46:13.955Z,25.32
2022-08-20T11:47:13.933Z,25.51
2022-08-20T11:48:13.924Z,25.43
2022-08-20T11:49:13.912Z,25.43
2022-08-20T11:50:13.917Z,25.54
2022-08-20T11:51:14.911Z,25.72
2022-08-20T11:52:13.884Z,25.75
2022-08-20T11:53:14.950Z,25.83
2022-08-20T11:54:13.868Z,25.83
2022-08-20T11:55:13.865Z,25.72
2022-08-20T11:56:13.852Z,25.88
2022-08-20T11:57:13.853Z,26.02
2022-08-20T11:58:13.888Z,25.96
2022-08-20T11:59:13.837Z,25.96
2022-08-20T12:00:13.825Z,25.93
2022-08-20T12:01:13.824Z,25.90
2022-08-20T12:02:13.897Z,25.87
2022-08-20T12:03:13.918Z,25.73
2022-08-20T12:04:13.797Z,25.73
2022-08-20T12:05:13.787Z,25.87
2022-08-20T12:06:13.787Z,25.93
2022-08-20T12:07:13.781Z,25.99
2022-08-20T12:08:25.449Z,26.05
2022-08-20T12:09:15.298Z,26.06
2022-08-20T12:10:13.760Z,26.29
2022-08-20T12:11:13.757Z,26.55
2022-08-20T12:12:13.980Z,26.70
2022-08-20T12:13:13.735Z,26.73
2022-08-20T12:14:13.730Z,26.89
2022-08-20T12:15:13.713Z,26.90
2022-08-20T12:16:13.715Z,26.81
2022-08-20T12:17:13.695Z,26.93
2022-08-20T12:18:13.682Z,27.10
2022-08-20T12:19:13.708Z,27.21
2022-08-20T12:20:13.698Z,27.33
2022-08-20T12:21:13.672Z,27.39
2022-08-20T12:22:24.344Z,27.36
2022-08-20T12:23:14.654Z,27.18
2022-08-20T12:24:13.669Z,27.15
2022-08-20T12:25:13.639Z,26.68
2022-08-20T12:26:13.625Z,26.68
2022-08-20T12:27:13.624Z,26.63
2022-08-20T12:28:13.615Z,26.51
2022-08-20T12:29:13.609Z,26.33
2022-08-20T12:30:13.606Z,26.18
2022-08-20T12:31:13.585Z,25.78
2022-08-20T12:32:13.577Z,25.54
2022-08-20T12:33:13.584Z,25.31
2022-08-20T12:34:13.567Z,25.17
2022-08-20T12:35:13.578Z,24.91
2022-08-20T12:36:13.547Z,24.91
2022-08-20T12:37:15.921Z,24.76
2022-08-20T12:38:14.532Z,24.54
2022-08-20T12:39:13.523Z,24.32
2022-08-20T12:40:13.614Z,24.24
2022-08-20T12:41:13.511Z,23.93
2022-08-20T12:42:13.511Z,23.78
2022-08-20T12:43:13.493Z,23.63
2022-08-20T12:44:13.544Z,23.76
2022-08-20T12:45:13.477Z,23.68
2022-08-20T12:46:13.491Z,23.61
2022-08-20T12:47:13.467Z,23.40
2022-08-20T12:48:13.457Z,23.28
2022-08-20T12:49:13.446Z,23.24
2022-08-20T12:50:13.449Z,23.23
2022-08-20T12:51:13.456Z,23.23
2022-08-20T12:52:13.456Z,23.15
2022-08-20T12:53:13.433Z,23.09